sensor_id;sensor_type;location;lat;lon;timestamp;P1;durP1;ratioP1;P2;durP2;ratioP2
28509;SDS011;15723;55.684;37.928;2023-05-10T00:00:01;40.08;;;14.77;;
28509;SDS011;15723;55.684;37.928;2023-05-10T00:02:39;35.40;;;14.60;;
28509;SDS011;15723;55.684;37.928;2023-05-10T00:05:06;39.83;;;15.25;;
28509;SDS011;15723;55.684;37.928;2023-05-10T00:07:33;32.50;;;14.52;;
28509;SDS011;15723;55.684;37.928;2023-05-10T00:09:59;34.67;;;12.85;;
28509;SDS011;15723;55.684;37.928;2023-05-10T00:12:25;30.92;;;12.77;;
28509;SDS011;15723;55.684;37.928;2023-05-10T00:14:52;31.98;;;13.38;;
28509;SDS011;15723;55.684;37.928;2023-05-10T00:17:18;41.67;;;16.45;;
28509;SDS011;15723;55.684;37.928;2023-05-10T00:19:45;39.05;;;16.55;;
28509;SDS011;15723;55.684;37.928;2023-05-10T00:22:11;66.38;;;17.42;;
28509;SDS011;15723;55.684;37.928;2023-05-10T00:24:37;40.83;;;15.20;;
28509;SDS011;15723;55.684;37.928;2023-05-10T00:27:04;30.20;;;14.18;;
28509;SDS011;15723;55.684;37.928;2023-05-10T00:29:30;35.20;;;13.55;;
28509;SDS011;15723;55.684;37.928;2023-05-10T00:31:57;33.83;;;13.35;;
28509;SDS011;15723;55.684;37.928;2023-05-10T00:34:23;32.30;;;12.00;;
28509;SDS011;15723;55.684;37.928;2023-05-10T00:36:50;34.40;;;11.55;;
28509;SDS011;15723;55.684;37.928;2023-05-10T00:39:17;24.27;;;12.32;;
28509;SDS011;15723;55.684;37.928;2023-05-10T00:41:43;26.98;;;11.20;;
28509;SDS011;15723;55.684;37.928;2023-05-10T00:44:11;31.67;;;11.95;;
28509;SDS011;15723;55.684;37.928;2023-05-10T00:46:38;28.48;;;11.90;;
28509;SDS011;15723;55.684;37.928;2023-05-10T00:49:04;20.20;;;10.85;;
28509;SDS011;15723;55.684;37.928;2023-05-10T00:51:31;25.95;;;11.65;;
28509;SDS011;15723;55.684;37.928;2023-05-10T00:53:58;39.75;;;13.88;;
28509;SDS011;15723;55.684;37.928;2023-05-10T00:56:25;39.22;;;14.82;;
28509;SDS011;15723;55.684;37.928;2023-05-10T00:58:52;41.45;;;13.50;;
28509;SDS011;15723;55.684;37.928;2023-05-10T01:01:19;64.72;;;16.33;;
28509;SDS011;15723;55.684;37.928;2023-05-10T01:03:45;35.15;;;16.08;;
28509;SDS011;15723;55.684;37.928;2023-05-10T01:06:12;31.15;;;16.45;;
28509;SDS011;15723;55.684;37.928;2023-05-10T01:08:39;36.13;;;16.25;;
28509;SDS011;15723;55.684;37.928;2023-05-10T01:11:06;36.95;;;15.10;;
28509;SDS011;15723;55.684;37.928;2023-05-10T01:13:35;35.17;;;14.88;;
28509;SDS011;15723;55.684;37.928;2023-05-10T01:16:03;32.55;;;14.30;;
28509;SDS011;15723;55.684;37.928;2023-05-10T01:18:36;43.63;;;15.63;;
28509;SDS011;15723;55.684;37.928;2023-05-10T01:21:09;46.10;;;15.90;;
28509;SDS011;15723;55.684;37.928;2023-05-10T01:32:26;28.50;;;13.93;;
28509;SDS011;15723;55.684;37.928;2023-05-10T01:43:25;53.95;;;16.63;;
28509;SDS011;15723;55.684;37.928;2023-05-10T01:48:39;45.88;;;15.52;;
28509;SDS011;15723;55.684;37.928;2023-05-10T01:51:16;42.10;;;16.50;;
28509;SDS011;15723;55.684;37.928;2023-05-10T01:53:48;39.05;;;15.23;;
28509;SDS011;15723;55.684;37.928;2023-05-10T01:56:18;39.45;;;16.13;;
28509;SDS011;15723;55.684;37.928;2023-05-10T01:58:48;34.97;;;14.98;;
28509;SDS011;15723;55.684;37.928;2023-05-10T02:01:17;45.03;;;15.75;;
28509;SDS011;15723;55.684;37.928;2023-05-10T02:03:46;40.45;;;15.35;;
28509;SDS011;15723;55.684;37.928;2023-05-10T02:06:15;35.13;;;14.25;;
28509;SDS011;15723;55.684;37.928;2023-05-10T02:08:44;33.22;;;15.02;;
28509;SDS011;15723;55.684;37.928;2023-05-10T02:11:13;34.08;;;15.45;;
28509;SDS011;15723;55.684;37.928;2023-05-10T02:13:40;45.92;;;16.00;;
28509;SDS011;15723;55.684;37.928;2023-05-10T02:16:08;44.80;;;15.35;;
28509;SDS011;15723;55.684;37.928;2023-05-10T02:18:36;38.80;;;15.50;;
28509;SDS011;15723;55.684;37.928;2023-05-10T02:21:02;40.80;;;15.10;;
28509;SDS011;15723;55.684;37.928;2023-05-10T02:23:30;48.60;;;15.05;;
28509;SDS011;15723;55.684;37.928;2023-05-10T02:25:57;40.60;;;15.95;;
28509;SDS011;15723;55.684;37.928;2023-05-10T02:28:25;39.50;;;14.45;;
28509;SDS011;15723;55.684;37.928;2023-05-10T02:30:54;39.97;;;14.98;;
28509;SDS011;15723;55.684;37.928;2023-05-10T02:33:21;34.72;;;15.38;;
28509;SDS011;15723;55.684;37.928;2023-05-10T02:35:50;40.25;;;15.85;;
28509;SDS011;15723;55.684;37.928;2023-05-10T02:38:16;43.47;;;16.30;;
28509;SDS011;15723;55.684;37.928;2023-05-10T02:40:46;35.88;;;15.82;;
28509;SDS011;15723;55.684;37.928;2023-05-10T02:43:15;70.90;;;17.85;;
28509;SDS011;15723;55.684;37.928;2023-05-10T02:45:44;35.45;;;15.23;;
28509;SDS011;15723;55.684;37.928;2023-05-10T02:48:13;43.45;;;16.85;;
28509;SDS011;15723;55.684;37.928;2023-05-10T02:50:42;44.72;;;15.85;;
28509;SDS011;15723;55.684;37.928;2023-05-10T02:53:11;37.63;;;15.00;;
28509;SDS011;15723;55.684;37.928;2023-05-10T02:55:42;32.05;;;12.60;;
28509;SDS011;15723;55.684;37.928;2023-05-10T02:58:13;37.67;;;12.88;;
28509;SDS011;15723;55.684;37.928;2023-05-10T03:00:39;28.45;;;13.27;;
28509;SDS011;15723;55.684;37.928;2023-05-10T03:03:07;29.17;;;12.30;;
28509;SDS011;15723;55.684;37.928;2023-05-10T03:05:33;45.10;;;13.45;;
28509;SDS011;15723;55.684;37.928;2023-05-10T03:08:02;31.13;;;11.52;;
28509;SDS011;15723;55.684;37.928;2023-05-10T03:10:30;31.27;;;12.60;;
28509;SDS011;15723;55.684;37.928;2023-05-10T03:13:06;24.77;;;11.95;;
28509;SDS011;15723;55.684;37.928;2023-05-10T03:15:37;29.27;;;11.55;;
28509;SDS011;15723;55.684;37.928;2023-05-10T03:21:22;45.95;;;15.55;;
28509;SDS011;15723;55.684;37.928;2023-05-10T03:23:58;47.78;;;14.63;;
28509;SDS011;15723;55.684;37.928;2023-05-10T03:26:31;41.97;;;14.00;;
28509;SDS011;15723;55.684;37.928;2023-05-10T03:29:12;32.72;;;13.05;;
28509;SDS011;15723;55.684;37.928;2023-05-10T03:31:40;29.10;;;13.45;;
28509;SDS011;15723;55.684;37.928;2023-05-10T03:34:07;37.28;;;12.50;;
28509;SDS011;15723;55.684;37.928;2023-05-10T03:36:33;31.10;;;13.15;;
28509;SDS011;15723;55.684;37.928;2023-05-10T03:39:00;38.05;;;13.77;;
28509;SDS011;15723;55.684;37.928;2023-05-10T03:41:27;28.27;;;11.93;;
28509;SDS011;15723;55.684;37.928;2023-05-10T03:43:54;29.55;;;11.45;;
28509;SDS011;15723;55.684;37.928;2023-05-10T03:46:20;31.08;;;11.93;;
28509;SDS011;15723;55.684;37.928;2023-05-10T03:48:46;27.33;;;11.43;;
28509;SDS011;15723;55.684;37.928;2023-05-10T03:51:13;22.95;;;10.70;;
28509;SDS011;15723;55.684;37.928;2023-05-10T03:53:39;25.27;;;10.35;;
28509;SDS011;15723;55.684;37.928;2023-05-10T03:56:06;27.65;;;10.05;;
28509;SDS011;15723;55.684;37.928;2023-05-10T03:58:32;25.65;;;9.15;;
28509;SDS011;15723;55.684;37.928;2023-05-10T04:00:59;21.17;;;9.50;;
28509;SDS011;15723;55.684;37.928;2023-05-10T04:03:25;23.23;;;9.07;;
28509;SDS011;15723;55.684;37.928;2023-05-10T04:05:58;29.80;;;10.05;;
28509;SDS011;15723;55.684;37.928;2023-05-10T04:08:26;22.73;;;9.00;;
28509;SDS011;15723;55.684;37.928;2023-05-10T04:10:52;26.48;;;8.32;;
28509;SDS011;15723;55.684;37.928;2023-05-10T04:13:19;25.75;;;9.50;;
28509;SDS011;15723;55.684;37.928;2023-05-10T04:15:45;18.98;;;8.60;;
28509;SDS011;15723;55.684;37.928;2023-05-10T04:18:11;19.38;;;8.52;;
28509;SDS011;15723;55.684;37.928;2023-05-10T04:20:37;21.35;;;8.45;;
28509;SDS011;15723;55.684;37.928;2023-05-10T04:23:04;32.70;;;8.60;;
28509;SDS011;15723;55.684;37.928;2023-05-10T04:25:33;23.83;;;9.85;;
28509;SDS011;15723;55.684;37.928;2023-05-10T04:28:00;24.25;;;9.00;;
28509;SDS011;15723;55.684;37.928;2023-05-10T04:30:27;23.90;;;8.73;;
28509;SDS011;15723;55.684;37.928;2023-05-10T04:32:54;21.17;;;7.57;;
28509;SDS011;15723;55.684;37.928;2023-05-10T04:35:21;21.83;;;7.45;;
28509;SDS011;15723;55.684;37.928;2023-05-10T04:37:47;11.98;;;6.68;;
28509;SDS011;15723;55.684;37.928;2023-05-10T04:40:14;16.85;;;6.80;;
28509;SDS011;15723;55.684;37.928;2023-05-10T04:42:40;11.80;;;7.28;;
28509;SDS011;15723;55.684;37.928;2023-05-10T04:45:07;12.57;;;6.05;;
28509;SDS011;15723;55.684;37.928;2023-05-10T04:47:35;13.88;;;6.50;;
28509;SDS011;15723;55.684;37.928;2023-05-10T04:50:03;16.98;;;5.97;;
28509;SDS011;15723;55.684;37.928;2023-05-10T04:52:30;21.45;;;6.55;;
28509;SDS011;15723;55.684;37.928;2023-05-10T04:54:57;15.82;;;6.35;;
28509;SDS011;15723;55.684;37.928;2023-05-10T04:57:23;14.73;;;6.05;;
28509;SDS011;15723;55.684;37.928;2023-05-10T04:59:49;15.98;;;6.07;;
28509;SDS011;15723;55.684;37.928;2023-05-10T05:02:16;14.57;;;5.57;;
28509;SDS011;15723;55.684;37.928;2023-05-10T05:04:42;15.63;;;5.82;;
28509;SDS011;15723;55.684;37.928;2023-05-10T05:07:08;13.65;;;5.90;;
28509;SDS011;15723;55.684;37.928;2023-05-10T05:09:34;11.73;;;5.93;;
28509;SDS011;15723;55.684;37.928;2023-05-10T05:12:01;16.05;;;6.13;;
28509;SDS011;15723;55.684;37.928;2023-05-10T05:14:27;12.00;;;5.38;;
28509;SDS011;15723;55.684;37.928;2023-05-10T05:16:54;10.48;;;5.10;;
28509;SDS011;15723;55.684;37.928;2023-05-10T05:19:21;15.73;;;6.10;;
28509;SDS011;15723;55.684;37.928;2023-05-10T05:21:48;20.05;;;5.20;;
28509;SDS011;15723;55.684;37.928;2023-05-10T05:24:14;10.13;;;5.47;;
28509;SDS011;15723;55.684;37.928;2023-05-10T05:26:40;12.90;;;5.85;;
28509;SDS011;15723;55.684;37.928;2023-05-10T05:29:07;13.80;;;6.22;;
28509;SDS011;15723;55.684;37.928;2023-05-10T05:31:33;11.75;;;5.65;;
28509;SDS011;15723;55.684;37.928;2023-05-10T05:33:59;15.30;;;5.10;;
28509;SDS011;15723;55.684;37.928;2023-05-10T05:36:26;13.35;;;5.15;;
28509;SDS011;15723;55.684;37.928;2023-05-10T05:38:52;12.25;;;5.22;;
28509;SDS011;15723;55.684;37.928;2023-05-10T05:41:18;13.45;;;5.25;;
28509;SDS011;15723;55.684;37.928;2023-05-10T05:43:45;15.18;;;5.05;;
28509;SDS011;15723;55.684;37.928;2023-05-10T05:46:11;20.83;;;5.63;;
28509;SDS011;15723;55.684;37.928;2023-05-10T05:48:38;12.15;;;4.65;;
28509;SDS011;15723;55.684;37.928;2023-05-10T05:51:04;13.50;;;4.97;;
28509;SDS011;15723;55.684;37.928;2023-05-10T05:53:30;11.80;;;5.63;;
28509;SDS011;15723;55.684;37.928;2023-05-10T05:55:57;14.40;;;5.22;;
28509;SDS011;15723;55.684;37.928;2023-05-10T05:58:24;13.60;;;5.03;;
28509;SDS011;15723;55.684;37.928;2023-05-10T06:00:51;14.35;;;4.82;;
28509;SDS011;15723;55.684;37.928;2023-05-10T06:03:18;13.05;;;4.40;;
28509;SDS011;15723;55.684;37.928;2023-05-10T06:05:45;14.63;;;4.43;;
28509;SDS011;15723;55.684;37.928;2023-05-10T06:08:11;12.98;;;4.47;;
28509;SDS011;15723;55.684;37.928;2023-05-10T06:10:37;14.88;;;4.25;;
28509;SDS011;15723;55.684;37.928;2023-05-10T06:13:04;14.30;;;4.43;;
28509;SDS011;15723;55.684;37.928;2023-05-10T06:15:31;9.65;;;3.88;;
28509;SDS011;15723;55.684;37.928;2023-05-10T06:17:58;13.35;;;3.78;;
28509;SDS011;15723;55.684;37.928;2023-05-10T06:20:24;12.57;;;3.90;;
28509;SDS011;15723;55.684;37.928;2023-05-10T06:22:51;9.02;;;3.60;;
28509;SDS011;15723;55.684;37.928;2023-05-10T06:25:17;9.20;;;3.33;;
28509;SDS011;15723;55.684;37.928;2023-05-10T06:27:46;8.82;;;3.40;;
28509;SDS011;15723;55.684;37.928;2023-05-10T06:30:12;12.98;;;3.33;;
28509;SDS011;15723;55.684;37.928;2023-05-10T06:32:41;10.90;;;3.05;;
28509;SDS011;15723;55.684;37.928;2023-05-10T06:35:09;9.05;;;3.20;;
28509;SDS011;15723;55.684;37.928;2023-05-10T06:37:36;4.95;;;2.65;;
28509;SDS011;15723;55.684;37.928;2023-05-10T06:40:02;5.65;;;2.63;;
28509;SDS011;15723;55.684;37.928;2023-05-10T06:42:30;7.43;;;2.47;;
28509;SDS011;15723;55.684;37.928;2023-05-10T06:44:57;3.80;;;2.20;;
28509;SDS011;15723;55.684;37.928;2023-05-10T06:47:23;5.50;;;2.20;;
28509;SDS011;15723;55.684;37.928;2023-05-10T06:49:49;8.75;;;2.45;;
28509;SDS011;15723;55.684;37.928;2023-05-10T06:52:16;8.27;;;2.78;;
28509;SDS011;15723;55.684;37.928;2023-05-10T06:54:42;8.70;;;3.25;;
28509;SDS011;15723;55.684;37.928;2023-05-10T06:57:08;6.80;;;2.20;;
28509;SDS011;15723;55.684;37.928;2023-05-10T06:59:35;5.43;;;2.10;;
28509;SDS011;15723;55.684;37.928;2023-05-10T07:02:02;6.10;;;2.20;;
28509;SDS011;15723;55.684;37.928;2023-05-10T07:04:29;6.10;;;2.28;;
28509;SDS011;15723;55.684;37.928;2023-05-10T07:06:55;3.13;;;1.92;;
28509;SDS011;15723;55.684;37.928;2023-05-10T07:09:22;7.53;;;2.35;;
28509;SDS011;15723;55.684;37.928;2023-05-10T07:11:50;5.28;;;1.70;;
28509;SDS011;15723;55.684;37.928;2023-05-10T07:14:16;5.28;;;2.08;;
28509;SDS011;15723;55.684;37.928;2023-05-10T07:16:42;5.82;;;1.50;;
28509;SDS011;15723;55.684;37.928;2023-05-10T07:19:09;4.47;;;1.55;;
28509;SDS011;15723;55.684;37.928;2023-05-10T07:21:36;4.47;;;2.08;;
28509;SDS011;15723;55.684;37.928;2023-05-10T07:24:03;5.22;;;1.67;;
28509;SDS011;15723;55.684;37.928;2023-05-10T07:26:29;4.03;;;1.85;;
28509;SDS011;15723;55.684;37.928;2023-05-10T07:28:55;5.30;;;1.90;;
28509;SDS011;15723;55.684;37.928;2023-05-10T07:31:21;6.35;;;1.75;;
28509;SDS011;15723;55.684;37.928;2023-05-10T07:33:48;3.50;;;1.65;;
28509;SDS011;15723;55.684;37.928;2023-05-10T07:36:17;2.88;;;1.50;;
28509;SDS011;15723;55.684;37.928;2023-05-10T07:38:44;3.20;;;1.58;;
28509;SDS011;15723;55.684;37.928;2023-05-10T07:41:11;4.70;;;1.70;;
28509;SDS011;15723;55.684;37.928;2023-05-10T07:43:38;3.10;;;1.38;;
28509;SDS011;15723;55.684;37.928;2023-05-10T07:46:05;2.30;;;1.40;;
28509;SDS011;15723;55.684;37.928;2023-05-10T07:48:32;3.78;;;1.42;;
28509;SDS011;15723;55.684;37.928;2023-05-10T07:50:58;2.65;;;1.50;;
28509;SDS011;15723;55.684;37.928;2023-05-10T07:53:25;5.80;;;1.98;;
28509;SDS011;15723;55.684;37.928;2023-05-10T07:55:58;3.67;;;1.50;;
28509;SDS011;15723;55.684;37.928;2023-05-10T07:58:25;2.43;;;1.20;;
28509;SDS011;15723;55.684;37.928;2023-05-10T08:00:51;3.22;;;1.60;;
28509;SDS011;15723;55.684;37.928;2023-05-10T08:03:18;6.88;;;1.63;;
28509;SDS011;15723;55.684;37.928;2023-05-10T08:05:44;2.58;;;1.55;;
28509;SDS011;15723;55.684;37.928;2023-05-10T08:08:10;3.10;;;1.30;;
28509;SDS011;15723;55.684;37.928;2023-05-10T08:10:37;4.28;;;1.33;;
28509;SDS011;15723;55.684;37.928;2023-05-10T08:13:03;2.50;;;1.45;;
28509;SDS011;15723;55.684;37.928;2023-05-10T08:15:29;3.35;;;1.45;;
28509;SDS011;15723;55.684;37.928;2023-05-10T08:17:56;5.00;;;1.60;;
28509;SDS011;15723;55.684;37.928;2023-05-10T08:20:22;4.57;;;1.70;;
28509;SDS011;15723;55.684;37.928;2023-05-10T08:22:48;5.00;;;1.30;;
28509;SDS011;15723;55.684;37.928;2023-05-10T08:25:15;2.22;;;1.20;;
28509;SDS011;15723;55.684;37.928;2023-05-10T08:27:41;2.35;;;1.27;;
28509;SDS011;15723;55.684;37.928;2023-05-10T08:30:08;4.53;;;1.13;;
28509;SDS011;15723;55.684;37.928;2023-05-10T08:32:35;4.05;;;1.40;;
28509;SDS011;15723;55.684;37.928;2023-05-10T08:35:03;6.50;;;1.60;;
28509;SDS011;15723;55.684;37.928;2023-05-10T08:37:31;3.70;;;1.25;;
28509;SDS011;15723;55.684;37.928;2023-05-10T08:39:58;1.92;;;1.13;;
28509;SDS011;15723;55.684;37.928;2023-05-10T08:42:25;5.40;;;1.50;;
28509;SDS011;15723;55.684;37.928;2023-05-10T08:44:56;1.50;;;1.00;;
28509;SDS011;15723;55.684;37.928;2023-05-10T08:47:23;2.92;;;1.05;;
28509;SDS011;15723;55.684;37.928;2023-05-10T08:49:51;3.55;;;1.65;;
28509;SDS011;15723;55.684;37.928;2023-05-10T08:52:18;4.47;;;1.60;;
28509;SDS011;15723;55.684;37.928;2023-05-10T08:54:46;5.80;;;1.58;;
28509;SDS011;15723;55.684;37.928;2023-05-10T08:57:13;4.55;;;1.83;;
28509;SDS011;15723;55.684;37.928;2023-05-10T08:59:39;2.28;;;1.63;;
28509;SDS011;15723;55.684;37.928;2023-05-10T09:02:05;2.88;;;1.83;;
28509;SDS011;15723;55.684;37.928;2023-05-10T09:04:34;6.93;;;2.13;;
28509;SDS011;15723;55.684;37.928;2023-05-10T09:07:01;6.80;;;2.08;;
28509;SDS011;15723;55.684;37.928;2023-05-10T09:09:27;7.55;;;1.80;;
28509;SDS011;15723;55.684;37.928;2023-05-10T09:11:54;6.68;;;1.42;;
28509;SDS011;15723;55.684;37.928;2023-05-10T09:14:21;4.30;;;1.60;;
28509;SDS011;15723;55.684;37.928;2023-05-10T09:16:50;6.93;;;2.08;;
28509;SDS011;15723;55.684;37.928;2023-05-10T09:19:17;4.47;;;2.20;;
28509;SDS011;15723;55.684;37.928;2023-05-10T09:21:43;2.00;;;1.45;;
28509;SDS011;15723;55.684;37.928;2023-05-10T09:24:09;5.70;;;2.00;;
28509;SDS011;15723;55.684;37.928;2023-05-10T09:26:39;5.70;;;2.10;;
28509;SDS011;15723;55.684;37.928;2023-05-10T09:29:13;4.28;;;1.55;;
28509;SDS011;15723;55.684;37.928;2023-05-10T09:31:52;1.75;;;1.50;;
28509;SDS011;15723;55.684;37.928;2023-05-10T09:34:30;4.05;;;1.73;;
28509;SDS011;15723;55.684;37.928;2023-05-10T09:36:59;3.15;;;1.60;;
28509;SDS011;15723;55.684;37.928;2023-05-10T09:39:30;6.88;;;1.63;;
28509;SDS011;15723;55.684;37.928;2023-05-10T09:42:01;3.70;;;1.80;;
28509;SDS011;15723;55.684;37.928;2023-05-10T09:44:32;5.22;;;2.10;;
28509;SDS011;15723;55.684;37.928;2023-05-10T09:46:59;4.60;;;2.00;;
28509;SDS011;15723;55.684;37.928;2023-05-10T09:49:26;3.80;;;1.88;;
28509;SDS011;15723;55.684;37.928;2023-05-10T09:52:06;4.85;;;1.60;;
28509;SDS011;15723;55.684;37.928;2023-05-10T09:54:34;3.22;;;1.58;;
28509;SDS011;15723;55.684;37.928;2023-05-10T09:57:01;6.47;;;2.10;;
28509;SDS011;15723;55.684;37.928;2023-05-10T09:59:28;3.67;;;2.15;;
28509;SDS011;15723;55.684;37.928;2023-05-10T10:01:56;6.68;;;2.15;;
28509;SDS011;15723;55.684;37.928;2023-05-10T10:04:25;3.22;;;1.73;;
28509;SDS011;15723;55.684;37.928;2023-05-10T10:06:59;5.22;;;1.98;;
28509;SDS011;15723;55.684;37.928;2023-05-10T10:09:27;5.25;;;2.08;;
28509;SDS011;15723;55.684;37.928;2023-05-10T10:11:54;5.30;;;1.73;;
28509;SDS011;15723;55.684;37.928;2023-05-10T10:14:21;3.88;;;1.70;;
28509;SDS011;15723;55.684;37.928;2023-05-10T10:16:49;1.90;;;1.38;;
28509;SDS011;15723;55.684;37.928;2023-05-10T10:19:19;5.55;;;1.70;;
28509;SDS011;15723;55.684;37.928;2023-05-10T10:21:49;2.95;;;1.20;;
28509;SDS011;15723;55.684;37.928;2023-05-10T10:24:16;1.48;;;1.38;;
28509;SDS011;15723;55.684;37.928;2023-05-10T10:26:42;2.00;;;1.20;;
28509;SDS011;15723;55.684;37.928;2023-05-10T10:29:17;3.38;;;1.42;;
28509;SDS011;15723;55.684;37.928;2023-05-10T10:31:55;2.47;;;1.38;;
28509;SDS011;15723;55.684;37.928;2023-05-10T10:34:31;3.70;;;1.65;;
28509;SDS011;15723;55.684;37.928;2023-05-10T10:36:57;4.57;;;2.05;;
28509;SDS011;15723;55.684;37.928;2023-05-10T10:39:29;5.05;;;1.40;;
28509;SDS011;15723;55.684;37.928;2023-05-10T10:41:57;4.53;;;1.80;;
28509;SDS011;15723;55.684;37.928;2023-05-10T10:57:42;3.13;;;1.83;;
28509;SDS011;15723;55.684;37.928;2023-05-10T11:00:23;4.38;;;1.85;;
28509;SDS011;15723;55.684;37.928;2023-05-10T11:05:36;5.95;;;1.55;;
28509;SDS011;15723;55.684;37.928;2023-05-10T11:08:09;2.80;;;1.75;;
28509;SDS011;15723;55.684;37.928;2023-05-10T11:10:37;1.98;;;1.50;;
28509;SDS011;15723;55.684;37.928;2023-05-10T11:13:05;4.38;;;1.45;;
28509;SDS011;15723;55.684;37.928;2023-05-10T11:18:16;3.10;;;1.70;;
28509;SDS011;15723;55.684;37.928;2023-05-10T11:20:45;2.45;;;1.58;;
28509;SDS011;15723;55.684;37.928;2023-05-10T11:23:32;2.17;;;1.52;;
28509;SDS011;15723;55.684;37.928;2023-05-10T11:26:07;3.15;;;1.73;;
28509;SDS011;15723;55.684;37.928;2023-05-10T11:28:43;3.92;;;2.08;;
28509;SDS011;15723;55.684;37.928;2023-05-10T11:31:18;3.15;;;1.60;;
28509;SDS011;15723;55.684;37.928;2023-05-10T11:33:46;3.17;;;1.60;;
28509;SDS011;15723;55.684;37.928;2023-05-10T11:36:15;3.15;;;1.45;;
28509;SDS011;15723;55.684;37.928;2023-05-10T11:38:51;4.63;;;1.65;;
28509;SDS011;15723;55.684;37.928;2023-05-10T11:41:18;4.53;;;1.88;;
28509;SDS011;15723;55.684;37.928;2023-05-10T11:43:52;7.32;;;2.00;;
28509;SDS011;15723;55.684;37.928;2023-05-10T11:46:20;3.38;;;1.80;;
28509;SDS011;15723;55.684;37.928;2023-05-10T11:48:51;5.30;;;1.85;;
28509;SDS011;15723;55.684;37.928;2023-05-10T11:51:27;4.05;;;1.55;;
28509;SDS011;15723;55.684;37.928;2023-05-10T11:53:54;7.70;;;1.80;;
28509;SDS011;15723;55.684;37.928;2023-05-10T11:56:22;8.10;;;2.65;;
28509;SDS011;15723;55.684;37.928;2023-05-10T11:58:52;17.52;;;2.63;;
28509;SDS011;15723;55.684;37.928;2023-05-10T12:01:21;6.40;;;2.20;;
28509;SDS011;15723;55.684;37.928;2023-05-10T12:03:49;6.85;;;2.38;;
28509;SDS011;15723;55.684;37.928;2023-05-10T12:06:17;6.15;;;2.13;;
28509;SDS011;15723;55.684;37.928;2023-05-10T12:08:45;5.38;;;1.65;;
28509;SDS011;15723;55.684;37.928;2023-05-10T12:11:12;2.20;;;1.70;;
28509;SDS011;15723;55.684;37.928;2023-05-10T12:13:42;3.17;;;1.77;;
28509;SDS011;15723;55.684;37.928;2023-05-10T12:16:18;2.20;;;1.77;;
28509;SDS011;15723;55.684;37.928;2023-05-10T12:18:49;3.60;;;1.90;;
28509;SDS011;15723;55.684;37.928;2023-05-10T12:21:17;9.35;;;2.42;;
28509;SDS011;15723;55.684;37.928;2023-05-10T12:23:45;3.50;;;1.80;;
28509;SDS011;15723;55.684;37.928;2023-05-10T12:26:12;3.10;;;2.10;;
28509;SDS011;15723;55.684;37.928;2023-05-10T12:28:40;4.60;;;2.38;;
28509;SDS011;15723;55.684;37.928;2023-05-10T12:31:06;4.13;;;1.70;;
28509;SDS011;15723;55.684;37.928;2023-05-10T12:33:36;6.40;;;2.40;;
28509;SDS011;15723;55.684;37.928;2023-05-10T12:36:12;18.88;;;4.15;;
28509;SDS011;15723;55.684;37.928;2023-05-10T12:38:43;17.95;;;3.83;;
28509;SDS011;15723;55.684;37.928;2023-05-10T12:41:15;4.60;;;2.60;;
28509;SDS011;15723;55.684;37.928;2023-05-10T12:43:43;7.97;;;2.60;;
28509;SDS011;15723;55.684;37.928;2023-05-10T12:46:12;22.85;;;3.70;;
28509;SDS011;15723;55.684;37.928;2023-05-10T12:48:42;21.17;;;4.18;;
28509;SDS011;15723;55.684;37.928;2023-05-10T12:51:10;7.50;;;2.42;;
28509;SDS011;15723;55.684;37.928;2023-05-10T12:53:42;6.20;;;2.33;;
28509;SDS011;15723;55.684;37.928;2023-05-10T12:56:11;6.50;;;2.50;;
28509;SDS011;15723;55.684;37.928;2023-05-10T12:58:38;3.28;;;1.70;;
28509;SDS011;15723;55.684;37.928;2023-05-10T13:01:04;3.85;;;2.10;;
28509;SDS011;15723;55.684;37.928;2023-05-10T13:03:31;2.63;;;1.73;;
28509;SDS011;15723;55.684;37.928;2023-05-10T13:05:58;12.85;;;2.63;;
28509;SDS011;15723;55.684;37.928;2023-05-10T13:08:24;9.10;;;2.40;;
28509;SDS011;15723;55.684;37.928;2023-05-10T13:10:50;3.70;;;2.25;;
28509;SDS011;15723;55.684;37.928;2023-05-10T13:13:17;15.27;;;3.13;;
28509;SDS011;15723;55.684;37.928;2023-05-10T13:15:43;5.85;;;2.15;;
28509;SDS011;15723;55.684;37.928;2023-05-10T13:18:09;13.88;;;2.80;;
28509;SDS011;15723;55.684;37.928;2023-05-10T13:20:36;10.35;;;2.92;;
28509;SDS011;15723;55.684;37.928;2023-05-10T13:23:03;10.05;;;2.60;;
28509;SDS011;15723;55.684;37.928;2023-05-10T13:25:29;10.43;;;2.78;;
28509;SDS011;15723;55.684;37.928;2023-05-10T13:27:55;9.40;;;2.67;;
28509;SDS011;15723;55.684;37.928;2023-05-10T13:30:21;9.85;;;2.60;;
28509;SDS011;15723;55.684;37.928;2023-05-10T13:32:49;5.75;;;2.10;;
28509;SDS011;15723;55.684;37.928;2023-05-10T13:35:16;3.65;;;2.58;;
28509;SDS011;15723;55.684;37.928;2023-05-10T13:37:43;5.15;;;1.95;;
28509;SDS011;15723;55.684;37.928;2023-05-10T13:40:09;7.85;;;2.63;;
28509;SDS011;15723;55.684;37.928;2023-05-10T13:42:36;6.70;;;2.17;;
28509;SDS011;15723;55.684;37.928;2023-05-10T13:45:03;7.13;;;2.92;;
28509;SDS011;15723;55.684;37.928;2023-05-10T13:47:33;4.28;;;2.00;;
28509;SDS011;15723;55.684;37.928;2023-05-10T13:50:00;3.10;;;2.13;;
28509;SDS011;15723;55.684;37.928;2023-05-10T13:52:31;5.03;;;2.00;;
28509;SDS011;15723;55.684;37.928;2023-05-10T13:54:57;5.10;;;2.50;;
28509;SDS011;15723;55.684;37.928;2023-05-10T13:57:24;5.55;;;2.20;;
28509;SDS011;15723;55.684;37.928;2023-05-10T13:59:51;5.63;;;2.10;;
28509;SDS011;15723;55.684;37.928;2023-05-10T14:02:18;5.28;;;2.05;;
28509;SDS011;15723;55.684;37.928;2023-05-10T14:04:44;6.93;;;2.08;;
28509;SDS011;15723;55.684;37.928;2023-05-10T14:07:11;13.13;;;3.40;;
28509;SDS011;15723;55.684;37.928;2023-05-10T14:09:37;17.08;;;3.67;;
28509;SDS011;15723;55.684;37.928;2023-05-10T14:12:04;8.55;;;2.35;;
28509;SDS011;15723;55.684;37.928;2023-05-10T14:14:30;12.02;;;2.53;;
28509;SDS011;15723;55.684;37.928;2023-05-10T14:16:57;17.95;;;3.42;;
28509;SDS011;15723;55.684;37.928;2023-05-10T14:19:26;9.35;;;3.60;;
28509;SDS011;15723;55.684;37.928;2023-05-10T14:21:53;9.23;;;2.33;;
28509;SDS011;15723;55.684;37.928;2023-05-10T14:24:19;19.63;;;3.42;;
28509;SDS011;15723;55.684;37.928;2023-05-10T14:26:46;14.52;;;3.17;;
28509;SDS011;15723;55.684;37.928;2023-05-10T14:29:12;7.95;;;2.28;;
28509;SDS011;15723;55.684;37.928;2023-05-10T14:31:39;8.52;;;2.20;;
28509;SDS011;15723;55.684;37.928;2023-05-10T14:34:06;12.10;;;2.63;;
28509;SDS011;15723;55.684;37.928;2023-05-10T14:36:32;19.05;;;3.50;;
28509;SDS011;15723;55.684;37.928;2023-05-10T14:38:59;21.25;;;3.55;;
28509;SDS011;15723;55.684;37.928;2023-05-10T14:41:25;9.95;;;2.97;;
28509;SDS011;15723;55.684;37.928;2023-05-10T14:43:52;15.27;;;2.85;;
28509;SDS011;15723;55.684;37.928;2023-05-10T14:46:19;6.50;;;2.08;;
28509;SDS011;15723;55.684;37.928;2023-05-10T14:48:45;7.65;;;2.67;;
28509;SDS011;15723;55.684;37.928;2023-05-10T14:51:11;6.68;;;2.45;;
28509;SDS011;15723;55.684;37.928;2023-05-10T14:53:38;8.63;;;2.50;;
28509;SDS011;15723;55.684;37.928;2023-05-10T14:56:04;5.90;;;2.17;;
28509;SDS011;15723;55.684;37.928;2023-05-10T14:58:31;2.75;;;1.80;;
28509;SDS011;15723;55.684;37.928;2023-05-10T15:00:57;6.68;;;2.30;;
28509;SDS011;15723;55.684;37.928;2023-05-10T15:03:24;4.72;;;2.15;;
28509;SDS011;15723;55.684;37.928;2023-05-10T15:05:50;7.03;;;2.47;;
28509;SDS011;15723;55.684;37.928;2023-05-10T15:08:17;9.48;;;2.70;;
28509;SDS011;15723;55.684;37.928;2023-05-10T15:10:43;3.08;;;2.53;;